createdAt,value
2023-05-12T00:01:39.380Z,7.89
2023-05-12T00:04:25.302Z,7.87
2023-05-12T00:07:11.299Z,8.13
2023-05-12T00:09:57.080Z,8.09
2023-05-12T00:12:43.047Z,7.98
2023-05-12T00:15:28.932Z,8.15
2023-05-12T00:18:14.793Z,8.39
2023-05-12T00:21:00.727Z,8.45
2023-05-12T00:23:46.525Z,8.51
2023-05-12T00:26:32.399Z,8.55
2023-05-12T00:29:18.344Z,8.27
2023-05-12T00:32:04.124Z,8.57
2023-05-12T00:34:49.958Z,8.54
2023-05-12T00:37:35.832Z,8.43
2023-05-12T00:40:21.808Z,8.57
2023-05-12T00:43:08.189Z,8.57
2023-05-12T00:45:54.054Z,8.61
2023-05-12T00:48:39.944Z,8.48
2023-05-12T00:51:25.729Z,8.33
2023-05-12T00:54:11.658Z,8.42
2023-05-12T00:56:57.569Z,8.44
2023-05-12T00:59:43.434Z,8.48
2023-05-12T01:02:29.188Z,8.37
2023-05-12T01:05:15.543Z,8.38
2023-05-12T01:08:01.269Z,8.45
2023-05-12T01:10:47.094Z,8.49
2023-05-12T01:13:33.112Z,8.43
2023-05-12T01:16:18.979Z,8.55
2023-05-12T01:19:04.781Z,8.40
2023-05-12T01:21:50.624Z,8.15
2023-05-12T01:24:36.348Z,8.29
2023-05-12T01:27:22.315Z,8.45
2023-05-12T01:30:08.152Z,8.36
2023-05-12T01:32:54.113Z,8.38
2023-05-12T01:35:40.303Z,8.27
2023-05-12T01:38:26.115Z,8.15
2023-05-12T01:41:11.975Z,8.41
2023-05-12T01:43:57.733Z,8.17
2023-05-12T01:46:43.518Z,7.93
2023-05-12T01:49:29.601Z,8.13
2023-05-12T01:52:15.283Z,8.18
2023-05-12T01:55:01.195Z,8.25
2023-05-12T01:57:47.056Z,8.20
2023-05-12T02:00:32.969Z,8.07
2023-05-12T02:03:18.869Z,8.24
2023-05-12T02:06:05.033Z,8.46
2023-05-12T02:08:50.940Z,8.05
2023-05-12T02:11:36.724Z,7.88
2023-05-12T02:14:22.417Z,7.88
2023-05-12T02:17:10.313Z,7.73
2023-05-12T02:19:56.189Z,7.57
2023-05-12T02:22:41.990Z,7.74
2023-05-12T02:25:28.006Z,7.70
2023-05-12T02:28:13.811Z,8.13
2023-05-12T02:30:59.599Z,8.29
2023-05-12T02:33:45.589Z,8.33
2023-05-12T02:36:31.333Z,8.44
2023-05-12T02:39:17.342Z,8.48
2023-05-12T02:42:03.175Z,8.50
2023-05-12T02:44:48.928Z,8.35
2023-05-12T02:47:34.813Z,8.29
2023-05-12T02:50:20.844Z,8.47
2023-05-12T02:53:07.166Z,8.47
2023-05-12T02:55:53.090Z,8.26
2023-05-12T02:58:38.803Z,8.32
2023-05-12T03:01:24.856Z,8.29
2023-05-12T03:04:10.932Z,8.33
2023-05-12T03:06:56.875Z,8.23
2023-05-12T03:09:42.982Z,8.29
2023-05-12T03:12:28.826Z,8.31
2023-05-12T03:15:14.810Z,8.31
2023-05-12T03:18:00.843Z,8.24
2023-05-12T03:20:46.637Z,8.27
2023-05-12T03:23:32.640Z,8.29
2023-05-12T03:26:18.403Z,8.24
2023-05-12T03:29:04.292Z,8.21
2023-05-12T03:31:50.252Z,8.01
2023-05-12T03:34:36.056Z,7.95
2023-05-12T03:37:22.013Z,8.07
2023-05-12T03:40:07.843Z,7.87
2023-05-12T03:42:53.586Z,8.05
2023-05-12T03:45:39.576Z,8.16
2023-05-12T03:48:25.448Z,7.99
2023-05-12T03:51:11.545Z,7.82
2023-05-12T03:53:57.443Z,7.95
2023-05-12T03:56:43.246Z,7.99
2023-05-12T03:59:29.190Z,7.86
2023-05-12T04:02:15.064Z,7.95
2023-05-12T04:05:00.947Z,7.98
2023-05-12T04:07:46.806Z,7.97
2023-05-12T04:10:32.533Z,8.01
2023-05-12T04:13:18.477Z,7.80
2023-05-12T04:16:04.398Z,7.68
2023-05-12T04:18:50.295Z,7.63
2023-05-12T04:21:36.466Z,7.78
2023-05-12T04:24:22.311Z,7.75
2023-05-12T04:27:08.062Z,7.98
2023-05-12T04:29:53.873Z,7.86
2023-05-12T04:32:39.845Z,7.77
2023-05-12T04:35:25.925Z,7.90
2023-05-12T04:38:11.686Z,7.76
2023-05-12T04:40:57.425Z,7.80
2023-05-12T04:46:34.235Z,8.06
2023-05-12T04:49:20.183Z,8.28
2023-05-12T04:52:05.893Z,8.31
2023-05-12T04:54:51.698Z,8.16
2023-05-12T04:57:37.533Z,8.14
2023-05-12T05:00:23.455Z,8.23
2023-05-12T05:03:09.353Z,8.26
2023-05-12T05:05:55.542Z,8.32
2023-05-12T05:08:43.484Z,8.28
2023-05-12T05:11:29.174Z,8.40
2023-05-12T05:14:15.063Z,8.43
2023-05-12T05:17:00.943Z,8.32
2023-05-12T05:19:57.125Z,8.47
2023-05-12T05:22:44.929Z,7.85
2023-05-12T05:25:30.758Z,7.74
2023-05-12T05:28:16.605Z,7.94
2023-05-12T05:31:02.348Z,8.09
2023-05-12T05:33:48.211Z,7.83
2023-05-12T05:36:34.034Z,7.82
2023-05-12T05:39:19.842Z,8.03
2023-05-12T05:42:05.583Z,7.92
2023-05-12T05:44:51.517Z,8.01
2023-05-12T05:47:37.413Z,8.19
2023-05-12T05:50:23.369Z,8.16
2023-05-12T05:53:09.165Z,8.23
2023-05-12T05:55:55.190Z,8.25
2023-05-12T05:58:41.050Z,8.19
2023-05-12T06:01:26.850Z,8.15
2023-05-12T06:04:12.786Z,7.85
2023-05-12T06:06:58.700Z,7.87
2023-05-12T06:09:44.635Z,7.80
2023-05-12T06:12:30.636Z,7.86
2023-05-12T06:15:16.499Z,7.67
2023-05-12T06:18:02.396Z,7.61
2023-05-12T06:20:48.335Z,7.70
2023-05-12T06:23:34.148Z,7.62
2023-05-12T06:26:20.168Z,7.80
2023-05-12T06:29:05.819Z,8.26
2023-05-12T06:31:51.684Z,8.32
2023-05-12T06:34:37.603Z,7.93
2023-05-12T06:37:23.452Z,8.22
2023-05-12T06:40:09.848Z,7.96
2023-05-12T06:42:55.641Z,7.94
2023-05-12T06:45:41.569Z,7.85
2023-05-12T06:48:27.482Z,8.21
2023-05-12T06:51:13.162Z,8.55
2023-05-12T06:53:59.149Z,8.59
2023-05-12T06:56:44.947Z,8.75
2023-05-12T06:59:30.813Z,8.73
2023-05-12T07:02:16.859Z,8.62
2023-05-12T07:05:02.722Z,8.76
2023-05-12T07:07:48.722Z,8.73
2023-05-12T07:10:34.520Z,8.67
2023-05-12T07:13:20.327Z,8.66
2023-05-12T07:16:06.202Z,8.62
2023-05-12T07:18:52.158Z,8.51
2023-05-12T07:21:38.001Z,8.89
2023-05-12T07:24:23.990Z,8.58
2023-05-12T07:27:09.732Z,8.94
2023-05-12T07:29:55.629Z,8.83
2023-05-12T07:32:41.481Z,8.70
2023-05-12T07:35:27.389Z,8.60
2023-05-12T07:38:13.263Z,8.69
2023-05-12T07:40:59.065Z,8.77
2023-05-12T07:43:44.982Z,8.55
2023-05-12T07:46:30.847Z,8.78
2023-05-12T07:49:16.790Z,9.20
2023-05-12T07:52:02.755Z,9.60
2023-05-12T07:54:48.547Z,9.73
2023-05-12T07:57:34.336Z,9.62
2023-05-12T08:00:20.297Z,9.83
2023-05-12T08:03:06.198Z,9.94
2023-05-12T08:05:52.492Z,9.77
2023-05-12T08:08:38.261Z,9.15
2023-05-12T08:11:24.129Z,9.44
2023-05-12T08:14:09.907Z,9.63
2023-05-12T08:16:55.916Z,10.37
2023-05-12T08:19:42.099Z,9.76
2023-05-12T08:22:28.157Z,9.47
2023-05-12T08:25:14.060Z,9.79
2023-05-12T08:28:00.013Z,9.76
2023-05-12T08:30:46.072Z,9.89
2023-05-12T08:33:32.464Z,10.33
2023-05-12T08:36:18.431Z,9.94
2023-05-12T08:39:04.208Z,9.51
2023-05-12T08:41:52.161Z,9.81
2023-05-12T08:44:38.092Z,10.16
2023-05-12T08:47:23.969Z,9.93
2023-05-12T08:50:09.913Z,10.03
2023-05-12T08:52:55.897Z,10.01
2023-05-12T08:55:43.425Z,10.20
2023-05-12T08:58:40.827Z,10.15
2023-05-12T09:01:28.095Z,10.06
2023-05-12T09:04:14.154Z,10.28
2023-05-12T09:07:00.242Z,10.41
2023-05-12T09:09:45.942Z,10.39
2023-05-12T09:12:31.835Z,10.51
2023-05-12T09:15:18.135Z,10.88
2023-05-12T09:18:04.492Z,10.86
2023-05-12T09:20:50.554Z,11.38
2023-05-12T09:23:36.530Z,10.82
2023-05-12T09:26:22.477Z,11.03
2023-05-12T09:29:08.790Z,11.40
2023-05-12T09:31:54.813Z,10.71
2023-05-12T09:34:41.013Z,10.92
2023-05-12T09:37:27.485Z,10.90
2023-05-12T09:40:13.428Z,10.63
2023-05-12T09:42:59.515Z,11.10
2023-05-12T09:45:45.392Z,11.04
2023-05-12T09:48:31.197Z,10.91
2023-05-12T09:51:17.198Z,11.08
2023-05-12T09:54:03.338Z,11.63
2023-05-12T09:56:50.327Z,11.65
2023-05-12T09:59:36.490Z,11.35
2023-05-12T10:02:22.937Z,11.77
2023-05-12T10:05:09.374Z,10.80
2023-05-12T10:07:55.783Z,11.25
2023-05-12T10:10:41.597Z,11.53
2023-05-12T10:13:27.426Z,11.44
2023-05-12T10:16:13.473Z,11.01
2023-05-12T10:18:59.410Z,11.13
2023-05-12T10:21:45.370Z,11.33
2023-05-12T10:24:31.299Z,11.43
2023-05-12T10:27:17.235Z,11.17
2023-05-12T10:30:03.512Z,11.57
2023-05-12T10:32:49.422Z,11.45
2023-05-12T10:35:35.274Z,11.49
2023-05-12T10:38:21.324Z,11.11
2023-05-12T10:41:07.205Z,11.65
2023-05-12T10:43:53.076Z,11.57
2023-05-12T10:46:38.877Z,11.81
2023-05-12T10:49:24.754Z,11.89
2023-05-12T10:52:10.669Z,11.32
2023-05-12T10:54:56.483Z,11.54
2023-05-12T10:57:42.772Z,11.68
2023-05-12T11:00:29.398Z,12.07
2023-05-12T11:03:16.284Z,11.65
2023-05-12T11:06:03.532Z,11.14
2023-05-12T11:08:51.223Z,11.12
2023-05-12T11:11:38.445Z,10.96
2023-05-12T11:14:24.403Z,11.26
2023-05-12T11:17:10.307Z,10.79
2023-05-12T11:19:56.209Z,11.06
2023-05-12T11:22:42.156Z,11.28
2023-05-12T11:25:28.044Z,11.32
2023-05-12T11:28:14.027Z,12.18
2023-05-12T11:30:59.895Z,12.18
2023-05-12T11:33:45.715Z,12.19
2023-05-12T11:36:31.633Z,12.59
2023-05-12T11:39:17.848Z,12.41
2023-05-12T11:42:12.120Z,12.09
2023-05-12T11:44:59.089Z,12.31
2023-05-12T11:47:45.118Z,12.98
2023-05-12T11:50:30.866Z,12.48
2023-05-12T11:53:16.677Z,12.30
2023-05-12T11:56:02.654Z,12.59
2023-05-12T11:58:48.453Z,12.62
2023-05-12T12:01:34.395Z,12.68
2023-05-12T12:04:20.167Z,12.85
2023-05-12T12:07:06.045Z,12.43
2023-05-12T12:09:52.001Z,12.65
2023-05-12T12:12:38.018Z,12.96
2023-05-12T12:15:23.899Z,13.59
2023-05-12T12:18:09.904Z,12.80
2023-05-12T12:20:55.739Z,12.96
2023-05-12T12:23:50.465Z,12.99
2023-05-12T12:26:38.937Z,12.35
2023-05-12T12:29:25.294Z,12.73
2023-05-12T12:32:11.232Z,13.06
2023-05-12T12:34:57.225Z,13.52
2023-05-12T12:37:43.110Z,13.71
2023-05-12T12:40:29.181Z,12.86
2023-05-12T12:43:14.945Z,12.88
2023-05-12T12:46:00.699Z,12.94
2023-05-12T12:48:46.475Z,13.44
2023-05-12T12:51:44.562Z,13.60
2023-05-12T12:54:32.029Z,13.57
2023-05-12T12:57:17.991Z,14.04
2023-05-12T13:00:03.789Z,13.61
2023-05-12T13:02:49.733Z,13.40
2023-05-12T13:05:36.230Z,13.42
2023-05-12T13:08:22.404Z,12.89
2023-05-12T13:11:08.265Z,12.98
2023-05-12T13:13:54.140Z,13.42
2023-05-12T13:16:40.093Z,13.41
2023-05-12T13:19:26.013Z,14.21
2023-05-12T13:22:11.889Z,14.69
2023-05-12T13:24:57.750Z,13.86
2023-05-12T13:27:43.591Z,13.96
2023-05-12T13:30:29.575Z,13.28
2023-05-12T13:33:15.492Z,13.51
2023-05-12T13:36:01.404Z,13.76
2023-05-12T13:38:47.158Z,13.85
2023-05-12T13:41:32.940Z,13.79
2023-05-12T13:44:18.831Z,13.96
2023-05-12T13:47:04.605Z,13.97
2023-05-12T13:49:50.494Z,14.38
2023-05-12T13:52:36.488Z,13.75
2023-05-12T13:55:22.378Z,14.24
2023-05-12T13:58:08.240Z,14.11
2023-05-12T14:00:54.018Z,13.55
2023-05-12T14:03:39.989Z,13.49
2023-05-12T14:06:25.961Z,13.96
2023-05-12T14:09:11.787Z,14.31
2023-05-12T14:11:57.864Z,14.42
2023-05-12T14:14:44.043Z,14.45
2023-05-12T14:17:30.001Z,14.61
2023-05-12T14:20:15.959Z,13.88
2023-05-12T14:23:01.893Z,14.58
2023-05-12T14:25:47.802Z,14.31
2023-05-12T14:28:33.794Z,13.71
2023-05-12T14:31:20.845Z,13.83
2023-05-12T14:34:06.893Z,13.60
2023-05-12T14:36:52.793Z,13.79
2023-05-12T14:39:38.548Z,13.63
2023-05-12T14:42:24.445Z,14.11
2023-05-12T14:45:10.247Z,13.68
2023-05-12T14:47:56.217Z,13.36
2023-05-12T14:50:42.101Z,13.24
2023-05-12T14:53:27.955Z,13.01
2023-05-12T14:56:13.871Z,13.04
2023-05-12T14:58:59.707Z,13.36
2023-05-12T15:01:45.719Z,13.41
2023-05-12T15:04:31.591Z,13.28
2023-05-12T15:07:17.455Z,13.71
2023-05-12T15:10:03.534Z,13.94
2023-05-12T15:12:49.385Z,13.94
2023-05-12T15:15:35.343Z,13.72
2023-05-12T15:18:21.725Z,13.45
2023-05-12T15:21:07.560Z,13.93
2023-05-12T15:23:53.587Z,13.41
2023-05-12T15:26:40.243Z,13.48
2023-05-12T15:29:26.512Z,13.66
2023-05-12T15:32:12.424Z,13.43
2023-05-12T15:34:58.430Z,13.59
2023-05-12T15:37:44.233Z,13.45
2023-05-12T15:40:30.168Z,13.21
2023-05-12T15:43:16.150Z,13.00
2023-05-12T15:46:02.132Z,13.13
2023-05-12T15:48:48.186Z,13.52
2023-05-12T15:51:34.134Z,13.60
2023-05-12T15:54:20.078Z,13.70
2023-05-12T15:57:05.878Z,13.42
2023-05-12T15:59:52.118Z,13.36
2023-05-12T16:02:38.476Z,13.69
2023-05-12T16:05:24.625Z,13.82
2023-05-12T16:08:10.400Z,13.94
2023-05-12T16:10:56.253Z,13.86
2023-05-12T16:13:42.116Z,14.00
2023-05-12T16:16:28.153Z,13.93
2023-05-12T16:19:14.167Z,14.04
2023-05-12T16:22:00.294Z,14.27
2023-05-12T16:24:46.433Z,14.00
2023-05-12T16:27:32.453Z,14.60
2023-05-12T16:30:19.961Z,14.06
2023-05-12T16:33:06.280Z,14.18
2023-05-12T16:35:52.338Z,14.00
2023-05-12T16:38:38.286Z,13.67
2023-05-12T16:41:24.456Z,13.62
2023-05-12T16:44:11.477Z,13.42
2023-05-12T16:46:57.413Z,13.47
2023-05-12T16:49:43.296Z,13.21
2023-05-12T16:52:29.198Z,12.96
2023-05-12T16:55:15.277Z,12.63
2023-05-12T16:58:01.275Z,12.58
2023-05-12T17:00:47.111Z,12.39
2023-05-12T17:03:33.124Z,12.45
2023-05-12T17:06:19.098Z,12.26
2023-05-12T17:09:04.993Z,12.22
2023-05-12T17:11:50.969Z,12.11
2023-05-12T17:14:36.863Z,12.28
2023-05-12T17:17:22.727Z,12.37
2023-05-12T17:20:08.614Z,12.62
2023-05-12T17:22:54.454Z,12.56
2023-05-12T17:25:40.388Z,12.50
2023-05-12T17:28:26.385Z,12.31
2023-05-12T17:31:12.305Z,13.24
2023-05-12T17:33:58.249Z,13.30
2023-05-12T17:36:44.143Z,13.15
2023-05-12T17:39:30.274Z,13.21
2023-05-12T17:42:16.142Z,13.25
2023-05-12T17:45:02.189Z,13.03
2023-05-12T17:47:48.179Z,12.78
2023-05-12T17:50:34.084Z,12.68
2023-05-12T17:53:20.019Z,12.80
2023-05-12T17:56:05.990Z,12.66
2023-05-12T17:58:51.729Z,12.52
2023-05-12T18:01:37.652Z,12.45
2023-05-12T18:04:23.623Z,12.44
2023-05-12T18:07:11.470Z,12.22
2023-05-12T18:09:57.434Z,12.08
2023-05-12T18:12:43.800Z,11.99
2023-05-12T18:15:29.760Z,12.03
2023-05-12T18:18:15.918Z,11.75
2023-05-12T18:21:01.773Z,11.72
2023-05-12T18:23:47.765Z,11.42
2023-05-12T18:26:33.649Z,11.51
2023-05-12T18:29:19.510Z,11.25
2023-05-12T18:32:05.667Z,11.56
2023-05-12T18:34:51.904Z,11.57
2023-05-12T18:37:37.872Z,11.13
2023-05-12T18:40:23.791Z,11.22
2023-05-12T18:43:09.703Z,11.31
2023-05-12T18:45:55.709Z,11.10
2023-05-12T18:48:41.749Z,10.92
2023-05-12T18:51:27.594Z,11.09
2023-05-12T18:54:13.755Z,10.83
2023-05-12T18:56:59.590Z,11.00
2023-05-12T18:59:45.518Z,11.18
2023-05-12T19:02:31.630Z,11.33
2023-05-12T19:05:17.440Z,11.13
2023-05-12T19:08:03.460Z,10.96
2023-05-12T19:10:49.456Z,11.37
2023-05-12T19:13:35.347Z,11.24
2023-05-12T19:16:21.356Z,11.25
2023-05-12T19:19:07.631Z,11.34
2023-05-12T19:21:53.828Z,11.20
2023-05-12T19:24:39.771Z,11.09
2023-05-12T19:27:25.596Z,11.17
2023-05-12T19:30:11.502Z,11.06
2023-05-12T19:32:57.365Z,11.20
2023-05-12T19:35:43.220Z,10.85
2023-05-12T19:38:29.197Z,11.00
2023-05-12T19:41:15.151Z,10.77
2023-05-12T19:44:01.082Z,10.82
2023-05-12T19:46:47.025Z,10.77
2023-05-12T19:49:32.943Z,10.62
2023-05-12T19:52:18.874Z,10.73
2023-05-12T19:55:04.871Z,10.58
2023-05-12T19:57:50.747Z,10.71
2023-05-12T20:00:38.967Z,10.60
2023-05-12T20:03:25.587Z,10.68
2023-05-12T20:06:11.758Z,10.74
2023-05-12T20:08:57.822Z,10.58
2023-05-12T20:11:43.737Z,10.62
2023-05-12T20:14:29.738Z,10.62
2023-05-12T20:17:15.692Z,10.73
2023-05-12T20:20:01.642Z,10.68
2023-05-12T20:22:47.726Z,10.53
2023-05-12T20:25:33.821Z,10.52
2023-05-12T20:28:19.664Z,10.68
2023-05-12T20:31:05.769Z,10.47
2023-05-12T20:33:51.881Z,10.40
2023-05-12T20:36:37.792Z,10.48
2023-05-12T20:39:23.841Z,10.44
2023-05-12T20:42:09.769Z,10.28
2023-05-12T20:44:55.735Z,10.37
2023-05-12T20:47:41.690Z,10.50
2023-05-12T20:50:27.563Z,10.34
2023-05-12T20:53:13.567Z,10.29
2023-05-12T20:55:59.708Z,10.73
2023-05-12T20:58:45.480Z,10.27
2023-05-12T21:01:31.604Z,10.51
2023-05-12T21:04:17.500Z,10.40
2023-05-12T21:07:03.966Z,10.36
2023-05-12T21:09:50.171Z,10.28
2023-05-12T21:12:36.295Z,10.20
2023-05-12T21:15:22.161Z,10.28
2023-05-12T21:18:08.169Z,10.18
2023-05-12T21:20:53.885Z,10.40
2023-05-12T21:23:39.730Z,10.01
2023-05-12T21:26:25.493Z,9.88
2023-05-12T21:29:11.304Z,10.19
2023-05-12T21:31:57.229Z,9.96
2023-05-12T21:34:43.113Z,10.05
2023-05-12T21:37:28.974Z,10.18
2023-05-12T21:40:14.894Z,10.12
2023-05-12T21:43:00.664Z,10.20
2023-05-12T21:45:46.675Z,10.05
2023-05-12T21:48:32.546Z,9.89
2023-05-12T21:51:18.464Z,9.97
2023-05-12T21:54:04.356Z,9.78
2023-05-12T21:56:50.202Z,9.74
2023-05-12T21:59:36.206Z,9.63
2023-05-12T22:02:22.013Z,9.64
2023-05-12T22:05:07.853Z,9.56
2023-05-12T22:07:53.794Z,9.52
2023-05-12T22:10:41.611Z,9.66
2023-05-12T22:13:27.547Z,9.56
2023-05-12T22:16:13.704Z,9.37
2023-05-12T22:18:59.867Z,9.54
2023-05-12T22:21:45.790Z,9.49
2023-05-12T22:24:31.748Z,9.49
2023-05-12T22:27:17.647Z,9.60
2023-05-12T22:30:03.497Z,9.64
2023-05-12T22:32:49.444Z,9.59
2023-05-12T22:35:35.821Z,9.58
2023-05-12T22:38:22.136Z,9.87
2023-05-12T22:41:10.013Z,9.66
2023-05-12T22:43:55.781Z,9.65
2023-05-12T22:46:41.822Z,9.60
2023-05-12T22:49:27.754Z,9.52
2023-05-12T22:52:13.709Z,9.47
2023-05-12T22:55:01.708Z,9.61
2023-05-12T22:57:47.587Z,9.49
2023-05-12T23:00:33.619Z,9.41
2023-05-12T23:03:19.613Z,9.48
2023-05-12T23:06:05.406Z,9.41
2023-05-12T23:08:51.322Z,9.41
2023-05-12T23:11:37.243Z,9.31
2023-05-12T23:14:23.150Z,9.46
2023-05-12T23:17:09.020Z,9.51
2023-05-12T23:19:54.988Z,9.39
2023-05-12T23:22:40.995Z,9.55
2023-05-12T23:25:26.812Z,9.57
2023-05-12T23:28:12.689Z,9.28
2023-05-12T23:30:58.596Z,9.20
2023-05-12T23:33:44.362Z,9.27
2023-05-12T23:36:30.269Z,9.30
2023-05-12T23:39:16.644Z,9.18
2023-05-12T23:42:02.526Z,9.26
2023-05-12T23:44:48.435Z,9.11
2023-05-12T23:47:34.282Z,9.14
2023-05-12T23:50:20.484Z,9.07
2023-05-12T23:53:06.794Z,8.92
2023-05-12T23:55:52.585Z,8.83
2023-05-12T23:58:38.634Z,8.86
